createdAt,value
2023-01-29T00:02:05.903Z,85.09
2023-01-29T00:04:32.751Z,84.99
2023-01-29T00:07:01.344Z,84.25
2023-01-29T00:09:28.854Z,85.25
2023-01-29T00:11:57.286Z,83.82
2023-01-29T00:14:25.491Z,83.85
2023-01-29T00:16:51.952Z,83.09
2023-01-29T00:19:22.463Z,83.76
2023-01-29T00:21:50.722Z,83.81
2023-01-29T00:24:17.264Z,83.65
2023-01-29T00:26:44.075Z,83.60
2023-01-29T00:29:11.202Z,82.84
2023-01-29T00:31:38.138Z,82.76
2023-01-29T00:34:04.706Z,82.59
2023-01-29T00:36:31.409Z,81.73
2023-01-29T00:39:00.665Z,81.38
2023-01-29T00:41:48.741Z,81.38
2023-01-29T00:44:33.793Z,81.77
2023-01-29T00:47:05.096Z,81.58
2023-01-29T00:49:31.568Z,82.42
2023-01-29T00:52:18.823Z,81.41
2023-01-29T00:54:45.336Z,81.92
2023-01-29T00:57:11.871Z,81.57
2023-01-29T00:59:40.187Z,82.36
2023-01-29T01:02:25.653Z,82.06
2023-01-29T01:04:52.423Z,81.82
2023-01-29T01:07:19.498Z,81.87
2023-01-29T01:10:06.499Z,83.08
2023-01-29T01:12:33.209Z,83.63
2023-01-29T01:14:59.820Z,83.83
2023-01-29T01:17:26.500Z,83.53
2023-01-29T01:19:52.996Z,83.96
2023-01-29T01:22:21.888Z,83.93
2023-01-29T01:24:50.143Z,84.41
2023-01-29T01:27:17.523Z,84.55
2023-01-29T01:29:44.070Z,83.85
2023-01-29T01:32:10.928Z,84.75
2023-01-29T01:34:37.690Z,85.26
2023-01-29T01:37:04.334Z,84.39
2023-01-29T01:39:37.246Z,85.79
2023-01-29T01:42:03.848Z,85.92
2023-01-29T01:44:53.474Z,85.00
2023-01-29T01:47:24.806Z,85.16
2023-01-29T01:49:52.359Z,84.71
2023-01-29T01:52:21.058Z,85.76
2023-01-29T01:54:48.995Z,85.30
2023-01-29T01:57:25.287Z,86.02
2023-01-29T01:59:58.245Z,86.34
2023-01-29T02:02:45.859Z,86.32
2023-01-29T02:05:32.685Z,86.32
2023-01-29T02:08:18.548Z,86.32
2023-01-29T02:10:47.064Z,86.33
2023-01-29T02:13:18.616Z,85.98
2023-01-29T02:15:48.718Z,86.21
2023-01-29T02:18:21.446Z,85.99
2023-01-29T02:21:09.051Z,86.45
2023-01-29T02:23:44.505Z,86.48
2023-01-29T02:26:54.131Z,86.83
2023-01-29T02:29:35.513Z,87.97
2023-01-29T02:32:15.361Z,88.20
2023-01-29T02:35:28.830Z,88.38
2023-01-29T02:38:22.269Z,87.45
2023-01-29T02:41:30.061Z,87.40
2023-01-29T02:44:11.459Z,87.41
2023-01-29T02:46:47.085Z,87.30
2023-01-29T02:49:33.177Z,87.48
2023-01-29T02:52:02.893Z,86.59
2023-01-29T02:54:41.561Z,87.23
2023-01-29T02:57:20.291Z,87.42
2023-01-29T03:00:05.270Z,88.24
2023-01-29T03:02:46.629Z,87.75
2023-01-29T03:05:19.576Z,87.11
2023-01-29T03:07:55.987Z,87.85
2023-01-29T03:10:30.437Z,88.05
2023-01-29T03:13:15.101Z,88.50
2023-01-29T03:15:48.712Z,88.76
2023-01-29T03:18:18.887Z,88.47
2023-01-29T03:20:52.215Z,88.86
2023-01-29T03:23:27.091Z,89.27
2023-01-29T03:26:18.334Z,89.90
2023-01-29T03:29:05.890Z,89.34
2023-01-29T03:31:55.383Z,88.49
2023-01-29T03:34:28.511Z,88.19
2023-01-29T03:37:02.506Z,87.94
2023-01-29T03:39:29.751Z,88.36
2023-01-29T03:42:03.653Z,88.63
2023-01-29T03:44:49.663Z,88.71
2023-01-29T03:47:40.992Z,88.99
2023-01-29T03:50:16.840Z,89.24
2023-01-29T03:52:52.508Z,88.88
2023-01-29T03:55:36.959Z,88.62
2023-01-29T03:58:20.287Z,89.31
2023-01-29T04:00:59.020Z,89.54
2023-01-29T04:03:55.287Z,89.68
2023-01-29T04:06:29.890Z,90.23
2023-01-29T04:09:14.503Z,89.32
2023-01-29T04:11:45.141Z,89.40
2023-01-29T04:14:12.371Z,89.28
2023-01-29T04:16:44.860Z,89.42
2023-01-29T04:19:12.055Z,89.11
2023-01-29T04:21:38.810Z,89.16
2023-01-29T04:24:09.484Z,88.94
2023-01-29T04:26:55.244Z,89.13
2023-01-29T04:29:36.281Z,89.73
2023-01-29T04:32:09.525Z,89.85
2023-01-29T04:35:10.985Z,89.37
2023-01-29T04:37:45.033Z,89.84
2023-01-29T04:40:32.122Z,89.68
2023-01-29T04:43:38.689Z,90.08
2023-01-29T04:46:10.554Z,90.36
2023-01-29T04:48:46.020Z,90.37
2023-01-29T04:51:37.178Z,89.81
2023-01-29T04:54:17.591Z,90.32
2023-01-29T04:56:56.410Z,90.72
2023-01-29T04:59:47.010Z,90.94
2023-01-29T05:02:14.010Z,90.94
2023-01-29T05:04:44.684Z,90.35
2023-01-29T05:07:17.377Z,90.71
2023-01-29T05:09:45.668Z,91.26
2023-01-29T05:12:14.505Z,91.29
2023-01-29T05:14:46.225Z,90.65
2023-01-29T05:17:18.706Z,89.40
2023-01-29T05:19:46.063Z,89.23
2023-01-29T05:22:17.243Z,89.37
2023-01-29T05:24:44.586Z,89.77
2023-01-29T05:27:39.064Z,89.56
2023-01-29T05:30:06.265Z,90.09
2023-01-29T05:32:34.727Z,89.74
2023-01-29T05:35:01.559Z,90.78
2023-01-29T05:37:28.022Z,90.12
2023-01-29T05:39:54.590Z,90.60
2023-01-29T05:42:27.863Z,90.86
2023-01-29T05:44:54.389Z,90.96
2023-01-29T05:47:21.067Z,91.50
2023-01-29T05:49:49.435Z,90.88
2023-01-29T05:52:15.899Z,90.78
2023-01-29T05:54:44.563Z,90.82
2023-01-29T05:57:13.314Z,91.37
2023-01-29T05:59:39.786Z,91.44
2023-01-29T06:02:06.426Z,91.48
2023-01-29T06:04:42.790Z,91.41
2023-01-29T06:07:12.882Z,91.41
2023-01-29T06:09:39.361Z,91.35
2023-01-29T06:12:08.143Z,91.27
2023-01-29T06:14:36.707Z,91.86
2023-01-29T06:17:03.205Z,91.69
2023-01-29T06:19:29.840Z,91.99
2023-01-29T06:21:56.401Z,92.63
2023-01-29T06:24:23.386Z,92.92
2023-01-29T06:26:55.466Z,92.40
2023-01-29T06:29:21.999Z,92.34
2023-01-29T06:31:48.551Z,92.53
2023-01-29T06:34:15.251Z,92.15
2023-01-29T06:36:42.011Z,92.36
2023-01-29T06:39:08.547Z,91.48
2023-01-29T06:41:37.604Z,91.86
2023-01-29T06:44:04.266Z,92.94
2023-01-29T06:46:31.228Z,94.41
2023-01-29T06:49:02.260Z,95.84
2023-01-29T06:51:28.924Z,97.87
2023-01-29T06:53:56.454Z,100.00
2023-01-29T06:56:25.866Z,100.00
2023-01-29T06:58:52.642Z,100.00
2023-01-29T07:01:34.700Z,100.00
2023-01-29T07:04:04.732Z,100.00
2023-01-29T07:06:31.440Z,100.00
2023-01-29T07:08:58.134Z,100.00
2023-01-29T07:11:24.785Z,100.00
2023-01-29T07:13:51.303Z,100.00
2023-01-29T07:16:19.202Z,100.00
2023-01-29T07:18:47.608Z,100.00
2023-01-29T07:21:14.323Z,100.00
2023-01-29T07:23:40.792Z,100.00
2023-01-29T07:26:07.576Z,100.00
2023-01-29T07:28:38.457Z,100.00
2023-01-29T07:31:06.489Z,100.00
2023-01-29T07:33:44.218Z,100.00
2023-01-29T07:36:13.456Z,100.00
2023-01-29T07:38:39.984Z,100.00
2023-01-29T07:41:13.419Z,100.00
2023-01-29T07:43:39.948Z,100.00
2023-01-29T07:46:06.511Z,100.00
2023-01-29T07:48:33.097Z,100.00
2023-01-29T07:51:00.055Z,100.00
2023-01-29T07:53:27.982Z,100.00
2023-01-29T07:55:54.648Z,100.00
2023-01-29T07:58:21.387Z,100.00
2023-01-29T08:00:47.926Z,100.00
2023-01-29T08:03:17.597Z,100.00
2023-01-29T08:05:45.032Z,100.00
2023-01-29T08:08:11.572Z,100.00
2023-01-29T08:10:41.353Z,100.00
2023-01-29T08:13:08.670Z,100.00
2023-01-29T08:15:38.007Z,100.00
2023-01-29T08:18:12.199Z,100.00
2023-01-29T08:20:38.806Z,100.00
2023-01-29T08:23:10.290Z,100.00
2023-01-29T08:25:36.935Z,100.00
2023-01-29T08:28:04.876Z,100.00
2023-01-29T08:30:33.697Z,100.00
2023-01-29T08:33:01.141Z,100.00
2023-01-29T08:35:27.655Z,100.00
2023-01-29T08:38:02.150Z,100.00
2023-01-29T08:40:33.686Z,100.00
2023-01-29T08:43:09.489Z,100.00
2023-01-29T08:45:39.192Z,100.00
2023-01-29T08:48:06.135Z,100.00
2023-01-29T08:50:34.866Z,100.00
2023-01-29T08:53:03.448Z,100.00
2023-01-29T08:55:29.976Z,100.00
2023-01-29T08:57:59.534Z,100.00
2023-01-29T09:00:28.345Z,100.00
2023-01-29T09:02:54.936Z,100.00
2023-01-29T09:05:24.925Z,100.00
2023-01-29T09:07:54.227Z,100.00
2023-01-29T09:10:22.679Z,100.00
2023-01-29T09:12:49.203Z,100.00
2023-01-29T09:15:17.867Z,100.00
2023-01-29T09:17:44.538Z,100.00
2023-01-29T09:20:11.652Z,100.00
2023-01-29T09:22:43.267Z,100.00
2023-01-29T09:25:10.782Z,100.00
2023-01-29T09:27:37.439Z,100.00
2023-01-29T09:30:05.642Z,100.00
2023-01-29T09:35:18.976Z,100.00
2023-01-29T09:37:49.980Z,100.00
2023-01-29T09:40:31.277Z,100.00
2023-01-29T09:43:07.964Z,100.00
2023-01-29T09:45:37.132Z,100.00
2023-01-29T09:48:05.788Z,100.00
2023-01-29T09:50:49.427Z,100.00
2023-01-29T09:53:38.732Z,100.00
2023-01-29T09:56:13.001Z,100.00
2023-01-29T09:58:42.376Z,100.00
2023-01-29T10:01:33.724Z,100.00
2023-01-29T10:04:12.053Z,100.00
2023-01-29T10:06:47.482Z,100.00
2023-01-29T10:09:30.751Z,100.00
2023-01-29T10:12:29.658Z,100.00
2023-01-29T10:15:05.079Z,100.00
2023-01-29T10:17:50.540Z,100.00
2023-01-29T10:20:27.333Z,100.00
2023-01-29T10:23:07.821Z,100.00
2023-01-29T10:25:39.195Z,100.00
2023-01-29T10:28:16.956Z,100.00
2023-01-29T10:30:49.003Z,100.00
2023-01-29T10:33:22.271Z,100.00
2023-01-29T10:35:55.344Z,100.00
2023-01-29T10:38:42.988Z,100.00
2023-01-29T10:41:28.022Z,99.83
2023-01-29T10:44:20.138Z,99.45
2023-01-29T10:46:58.099Z,98.59
2023-01-29T10:50:17.439Z,96.53
2023-01-29T10:52:53.067Z,96.12
2023-01-29T10:55:41.235Z,95.28
2023-01-29T10:58:29.463Z,95.05
2023-01-29T11:00:58.331Z,94.24
2023-01-29T11:03:30.479Z,93.28
2023-01-29T11:06:10.231Z,92.25
2023-01-29T11:09:12.103Z,91.06
2023-01-29T11:11:43.248Z,91.11
2023-01-29T11:14:15.191Z,91.69
2023-01-29T11:16:49.538Z,90.88
2023-01-29T11:19:16.678Z,90.25
2023-01-29T11:21:57.439Z,90.23
2023-01-29T11:24:23.935Z,89.92
2023-01-29T11:26:53.095Z,89.92
2023-01-29T11:29:46.237Z,90.35
2023-01-29T11:32:24.568Z,89.62
2023-01-29T11:35:00.156Z,89.81
2023-01-29T11:37:41.134Z,88.84
2023-01-29T11:40:37.169Z,89.14
2023-01-29T11:43:28.206Z,84.96
2023-01-29T11:46:00.377Z,86.12
2023-01-29T11:48:51.569Z,86.42
2023-01-29T11:51:27.192Z,85.70
2023-01-29T11:54:00.574Z,85.63
2023-01-29T11:56:42.862Z,85.83
2023-01-29T11:59:37.162Z,86.69
2023-01-29T12:02:32.243Z,85.06
2023-01-29T12:05:15.404Z,84.25
2023-01-29T12:07:44.343Z,82.53
2023-01-29T12:10:36.596Z,80.73
2023-01-29T12:13:23.132Z,80.73
2023-01-29T12:15:49.922Z,81.89
2023-01-29T12:18:34.592Z,84.12
2023-01-29T12:21:24.237Z,83.76
2023-01-29T12:24:15.551Z,82.93
2023-01-29T12:26:51.857Z,83.49
2023-01-29T12:29:57.689Z,84.04
2023-01-29T12:32:26.931Z,83.86
2023-01-29T12:35:13.822Z,83.11
2023-01-29T12:38:01.028Z,82.51
2023-01-29T12:40:33.887Z,81.87
2023-01-29T12:43:06.856Z,80.66
2023-01-29T12:45:41.300Z,79.90
2023-01-29T12:48:12.163Z,79.28
2023-01-29T12:50:38.889Z,79.81
2023-01-29T12:53:19.343Z,79.97
2023-01-29T12:55:53.905Z,80.99
2023-01-29T12:58:28.854Z,82.59
2023-01-29T13:00:59.269Z,81.48
2023-01-29T13:03:57.167Z,79.81
2023-01-29T13:06:30.383Z,80.02
2023-01-29T13:09:11.661Z,80.75
2023-01-29T13:11:43.911Z,80.54
2023-01-29T13:14:24.209Z,79.82
2023-01-29T13:17:06.960Z,79.45
2023-01-29T13:19:41.128Z,78.51
2023-01-29T13:22:22.603Z,78.81
2023-01-29T13:24:58.682Z,78.67
2023-01-29T13:27:33.893Z,78.59
2023-01-29T13:30:02.810Z,78.39
2023-01-29T13:32:31.536Z,79.69
2023-01-29T13:35:22.794Z,78.84
2023-01-29T13:37:53.425Z,78.25
2023-01-29T13:40:27.450Z,79.42
2023-01-29T13:42:56.007Z,78.12
2023-01-29T13:45:34.088Z,79.06
2023-01-29T13:48:21.827Z,76.31
2023-01-29T13:50:52.160Z,76.15
2023-01-29T13:53:25.023Z,77.45
2023-01-29T13:55:51.687Z,77.69
2023-01-29T13:58:44.176Z,77.12
2023-01-29T14:01:10.829Z,75.36
2023-01-29T14:04:03.695Z,76.36
2023-01-29T14:06:45.624Z,75.50
2023-01-29T14:09:33.893Z,76.47
2023-01-29T14:12:00.672Z,77.13
2023-01-29T14:14:48.927Z,76.14
2023-01-29T14:17:17.454Z,77.11
2023-01-29T14:19:51.715Z,75.05
2023-01-29T14:22:24.611Z,76.42
2023-01-29T14:24:57.672Z,74.63
2023-01-29T14:27:27.756Z,73.50
2023-01-29T14:30:04.638Z,74.47
2023-01-29T14:32:31.720Z,72.88
2023-01-29T14:35:03.968Z,73.41
2023-01-29T14:37:42.225Z,74.35
2023-01-29T14:40:11.455Z,73.94
2023-01-29T14:42:47.360Z,75.56
2023-01-29T14:48:51.721Z,73.85
2023-01-29T14:51:20.434Z,72.89
2023-01-29T14:53:53.654Z,73.35
2023-01-29T14:57:08.555Z,73.49
2023-01-29T14:59:52.173Z,74.05
2023-01-29T15:02:33.736Z,72.81
2023-01-29T15:05:02.637Z,71.81
2023-01-29T15:07:42.366Z,72.12
2023-01-29T15:10:22.716Z,72.05
2023-01-29T15:12:58.239Z,72.13
2023-01-29T15:15:47.312Z,73.15
2023-01-29T15:18:34.723Z,74.31
2023-01-29T15:21:15.714Z,74.84
2023-01-29T15:23:47.795Z,74.42
2023-01-29T15:26:27.256Z,75.62
2023-01-29T15:29:03.547Z,74.50
2023-01-29T15:31:31.375Z,74.59
2023-01-29T15:34:03.096Z,75.50
2023-01-29T15:36:32.133Z,75.17
2023-01-29T15:39:19.366Z,75.23
2023-01-29T15:41:48.722Z,75.36
2023-01-29T15:44:24.588Z,76.47
2023-01-29T15:46:58.634Z,75.30
2023-01-29T15:49:33.959Z,75.33
2023-01-29T15:52:05.299Z,75.24
2023-01-29T15:54:36.167Z,75.89
2023-01-29T15:57:03.608Z,75.95
2023-01-29T15:59:35.297Z,76.87
2023-01-29T16:02:50.968Z,77.17
2023-01-29T16:05:23.867Z,77.65
2023-01-29T16:07:52.377Z,78.88
2023-01-29T16:10:24.158Z,78.47
2023-01-29T16:12:52.121Z,79.37
2023-01-29T16:15:34.384Z,79.28
2023-01-29T16:18:03.581Z,79.70
2023-01-29T16:20:41.582Z,79.85
2023-01-29T16:23:17.574Z,79.33
2023-01-29T16:25:44.271Z,80.51
2023-01-29T16:28:11.197Z,80.32
2023-01-29T16:30:38.870Z,79.68
2023-01-29T16:33:10.332Z,79.16
2023-01-29T16:35:37.127Z,79.56
2023-01-29T16:38:08.140Z,79.78
2023-01-29T16:40:38.166Z,80.55
2023-01-29T16:43:42.779Z,81.10
2023-01-29T16:46:35.906Z,81.63
2023-01-29T16:49:03.023Z,81.46
2023-01-29T16:51:39.883Z,81.11
2023-01-29T16:54:22.263Z,80.35
2023-01-29T16:56:58.105Z,79.96
2023-01-29T16:59:35.825Z,80.25
2023-01-29T17:02:08.027Z,80.98
2023-01-29T17:04:34.570Z,80.21
2023-01-29T17:07:02.381Z,80.85
2023-01-29T17:09:35.441Z,80.96
2023-01-29T17:12:06.842Z,81.28
2023-01-29T17:14:40.367Z,82.15
2023-01-29T17:17:15.499Z,81.39
2023-01-29T17:19:42.011Z,82.27
2023-01-29T17:22:14.700Z,81.74
2023-01-29T17:24:48.169Z,81.42
2023-01-29T17:27:22.731Z,81.69
2023-01-29T17:29:57.805Z,82.60
2023-01-29T17:32:25.100Z,83.30
2023-01-29T17:35:20.415Z,85.02
2023-01-29T17:37:47.499Z,85.48
2023-01-29T17:40:43.687Z,86.36
2023-01-29T17:43:11.895Z,86.99
2023-01-29T17:45:41.154Z,87.39
2023-01-29T17:48:27.127Z,87.79
2023-01-29T17:50:57.005Z,88.55
2023-01-29T17:53:26.535Z,89.93
2023-01-29T17:56:07.208Z,90.55
2023-01-29T17:58:36.549Z,91.39
2023-01-29T18:01:03.169Z,91.71
2023-01-29T18:03:32.362Z,91.87
2023-01-29T18:05:59.079Z,92.00
2023-01-29T18:08:32.967Z,92.55
2023-01-29T18:11:00.571Z,93.33
2023-01-29T18:13:27.769Z,93.88
2023-01-29T18:15:54.463Z,94.44
2023-01-29T18:18:23.521Z,95.19
2023-01-29T18:20:50.539Z,95.16
2023-01-29T18:23:17.366Z,95.10
2023-01-29T18:25:55.099Z,96.46
2023-01-29T18:28:21.583Z,97.37
2023-01-29T18:30:48.185Z,97.64
2023-01-29T18:33:18.035Z,98.14
2023-01-29T18:35:45.280Z,98.66
2023-01-29T18:38:11.966Z,99.40
2023-01-29T18:40:40.559Z,100.00
2023-01-29T18:43:08.027Z,100.00
2023-01-29T18:45:34.670Z,100.00
2023-01-29T18:48:03.289Z,100.00
2023-01-29T18:50:30.048Z,100.00
2023-01-29T18:52:56.609Z,100.00
2023-01-29T18:55:24.014Z,100.00
2023-01-29T18:58:26.733Z,100.00
2023-01-29T19:00:41.300Z,100.00
2023-01-29T19:03:08.075Z,100.00
2023-01-29T19:05:34.568Z,100.00
2023-01-29T19:08:03.687Z,100.00
2023-01-29T19:10:30.233Z,100.00
2023-01-29T19:12:56.810Z,100.00
2023-01-29T19:15:23.562Z,100.00
2023-01-29T19:17:50.969Z,100.00
2023-01-29T19:20:21.986Z,100.00
2023-01-29T19:22:48.746Z,100.00
2023-01-29T19:25:16.147Z,100.00
2023-01-29T19:27:48.928Z,100.00
2023-01-29T19:30:15.801Z,100.00
2023-01-29T19:32:42.367Z,100.00
2023-01-29T19:35:08.858Z,100.00
2023-01-29T19:37:35.406Z,100.00
2023-01-29T19:40:03.911Z,100.00
2023-01-29T19:42:30.487Z,100.00
2023-01-29T19:44:57.063Z,100.00
2023-01-29T19:47:23.897Z,100.00
2023-01-29T19:49:50.547Z,100.00
2023-01-29T19:52:51.646Z,100.00
2023-01-29T19:55:20.753Z,100.00
2023-01-29T19:57:47.652Z,100.00
2023-01-29T20:00:17.441Z,100.00
2023-01-29T20:02:44.073Z,100.00
2023-01-29T20:05:12.771Z,100.00
2023-01-29T20:07:42.503Z,100.00
2023-01-29T20:10:15.473Z,100.00
2023-01-29T20:12:44.575Z,100.00
2023-01-29T20:15:12.237Z,100.00
2023-01-29T20:17:41.086Z,100.00
2023-01-29T20:20:10.325Z,100.00
2023-01-29T20:22:36.896Z,100.00
2023-01-29T20:25:03.587Z,100.00
2023-01-29T20:27:30.123Z,100.00
2023-01-29T20:29:57.407Z,100.00
2023-01-29T20:32:25.782Z,100.00
2023-01-29T20:34:52.556Z,100.00
2023-01-29T20:37:19.630Z,100.00
2023-01-29T20:39:46.335Z,100.00
2023-01-29T20:42:13.027Z,100.00
2023-01-29T20:44:39.707Z,100.00
2023-01-29T20:47:06.290Z,100.00
2023-01-29T20:49:33.072Z,100.00
2023-01-29T20:51:59.563Z,100.00
2023-01-29T20:54:28.346Z,100.00
2023-01-29T20:56:55.068Z,100.00
2023-01-29T20:59:22.980Z,100.00
2023-01-29T21:01:51.270Z,100.00
2023-01-29T21:04:17.866Z,100.00
2023-01-29T21:06:44.413Z,100.00
2023-01-29T21:09:11.093Z,100.00
2023-01-29T21:11:37.566Z,100.00
2023-01-29T21:14:04.155Z,100.00
2023-01-29T21:16:30.893Z,100.00
2023-01-29T21:18:58.506Z,100.00
2023-01-29T21:21:28.609Z,100.00
2023-01-29T21:23:55.277Z,100.00
2023-01-29T21:26:23.306Z,100.00
2023-01-29T21:28:50.206Z,100.00
2023-01-29T21:31:19.598Z,100.00
2023-01-29T21:33:46.139Z,100.00
2023-01-29T21:36:13.089Z,100.00
2023-01-29T21:38:40.037Z,100.00
2023-01-29T21:41:08.949Z,100.00
2023-01-29T21:43:35.792Z,100.00
2023-01-29T21:46:05.370Z,100.00
2023-01-29T21:48:31.941Z,100.00
2023-01-29T21:50:58.429Z,100.00
2023-01-29T21:53:30.329Z,100.00
2023-01-29T21:56:04.050Z,100.00
2023-01-29T21:58:33.512Z,100.00
2023-01-29T22:01:18.444Z,100.00
2023-01-29T22:03:48.452Z,100.00
2023-01-29T22:06:15.533Z,100.00
2023-01-29T22:08:42.300Z,100.00
2023-01-29T22:11:11.405Z,100.00
2023-01-29T22:13:38.159Z,100.00
2023-01-29T22:16:06.020Z,100.00
2023-01-29T22:18:41.655Z,100.00
2023-01-29T22:21:09.554Z,100.00
2023-01-29T22:23:36.348Z,100.00
2023-01-29T22:26:09.695Z,100.00
2023-01-29T22:28:36.259Z,100.00
2023-01-29T22:31:04.193Z,100.00
2023-01-29T22:33:33.286Z,100.00
2023-01-29T22:36:00.379Z,100.00
2023-01-29T22:38:26.925Z,100.00
2023-01-29T22:40:57.619Z,100.00
2023-01-29T22:43:26.021Z,100.00
2023-01-29T22:45:53.067Z,100.00
2023-01-29T22:48:26.551Z,100.00
2023-01-29T22:51:11.868Z,100.00
2023-01-29T22:53:44.570Z,100.00
2023-01-29T22:56:11.933Z,100.00
2023-01-29T22:58:38.689Z,100.00
2023-01-29T23:01:07.428Z,100.00
2023-01-29T23:03:34.444Z,100.00
2023-01-29T23:06:05.311Z,100.00
2023-01-29T23:08:36.733Z,100.00
2023-01-29T23:11:15.290Z,100.00
2023-01-29T23:13:53.178Z,100.00
2023-01-29T23:16:23.092Z,100.00
2023-01-29T23:18:51.874Z,100.00
2023-01-29T23:21:19.649Z,100.00
2023-01-29T23:23:46.934Z,100.00
2023-01-29T23:26:32.236Z,100.00
2023-01-29T23:29:01.225Z,100.00
2023-01-29T23:31:27.998Z,100.00
2023-01-29T23:33:56.315Z,100.00
2023-01-29T23:36:22.809Z,100.00
2023-01-29T23:38:49.247Z,100.00
2023-01-29T23:41:17.530Z,100.00
2023-01-29T23:43:46.275Z,100.00
2023-01-29T23:46:12.921Z,100.00
2023-01-29T23:48:41.287Z,100.00
2023-01-29T23:51:07.769Z,100.00
2023-01-29T23:53:36.183Z,100.00
2023-01-29T23:56:04.938Z,100.00
2023-01-29T23:58:32.733Z,100.00
